This is the latest recevied weather packets stored in our database for station/object VE3GSI. If no packets are shown the sender has not sent any weather packets the latest 10 day(s).
| Time | Temp. | Humidity | Pressure | Rain* | Wind** | Luminosity | Snow |
|---|---|---|---|---|---|---|---|
| 1778085366 | 8.89° C | 81% | 1008.1 hPa | 0 mm | - | - | - |
| 1778079366 | 7.78° C | 84% | 1008.3 hPa | 0 mm | - | - | - |
| 1778076965 | 6.67° C | 90% | 1008.2 hPa | 0 mm | - | - | - |
| 1778070965 | 6.67° C | 95% | 1007.8 hPa | 0 mm | - | - | - |
| 1778067365 | 6.11° C | 96% | 1008 hPa | 0 mm | - | - | - |
| 1778064964 | 5.56° C | 96% | 1007.6 hPa | 0.25 mm | - | - | - |
| 1778063764 | 5.56° C | 95% | 1007.3 hPa | 0.51 mm | - | - | - |
| 1778057765 | 6.67° C | 96% | 1007.8 hPa | 1.78 mm | - | - | - |
| 1778055365 | 6.67° C | 95% | 1007.9 hPa | 2.29 mm | - | - | - |
| 1778052364 | 7.22° C | 94% | 1007.8 hPa | 0.51 mm | - | - | - |
| 1778050564 | 7.22° C | 93% | 1008.2 hPa | 0 mm | - | - | - |
| 1778043365 | 7.78° C | 89% | 1008.1 hPa | 0 mm | - | - | - |
| 1778042164 | 7.78° C | 89% | 1008.3 hPa | 0 mm | - | - | - |
| 1778040964 | 7.78° C | 87% | 1008.2 hPa | 0 mm | - | - | - |
| 1778039164 | 7.22° C | 85% | 1008.2 hPa | 0 mm | - | - | - |
| 1778031365 | 8.89° C | 72% | 1006.9 hPa | 0 mm | - | - | - |
| 1778024765 | 9.44° C | 69% | 1006.2 hPa | 0 mm | - | - | - |
| 1778024164 | 9.44° C | 74% | 1006 hPa | 0 mm | - | - | - |
| 1778021764 | 8.89° C | 83% | 1005.7 hPa | 0.51 mm | - | - | - |
| 1778016965 | 12.22° C | 66% | 1004.9 hPa | 0 mm | - | - | - |
| 1778005566 | 16.11° C | 70% | 1002 hPa | 0 mm | - | - | - |
| 1777995365 | 21.11° C | 64% | 999.6 hPa | 0 mm | - | - | - |
| 1777979165 | 13.33° C | 85% | 998.4 hPa | 0 mm | - | - | - |
| 1777975565 | 12.22° C | 85% | 998.3 hPa | 0 mm | - | - | - |
| 1777971365 | 14.44° C | 79% | 998.1 hPa | 0 mm | - | - | - |
* Rain latest hour (hover to see other rain measurements)
** Current wind speed in m/s (hover to see current wind gust speed)